EGHE/ISC METAR and TAF weather

Enter ICAO airport designator
Station Type Date Time Source
EGHE METAR 2021/05/12 16:50 UTC NOAA

EGHE 121650Z 21008KT 9999 FEW013 13/08 Q1008


Station Type Date Time Source
EGHE Decoded METAR 2021/05/12 16:50 UTC NOAA

Scilly, Saint Mary'S, United Kingdom (EGHE) 49-55N 006-18W 0M
May 12, 2021 - 12:50 PM EDT / 2021.05.12 1650 UTC
Wind: from the SSW (210 degrees) at 9 MPH (8 KT):0
Visibility: greater than 7 mile(s):0
Sky conditions: mostly clear
Temperature: 55 F (13 C)
Dew Point: 46 F (8 C)
Relative Humidity: 71%
Pressure (altimeter): 29.77 in. Hg (1008 hPa)
ob: EGHE 121650Z 21008KT 9999 FEW013 13/08 Q1008
cycle: 17

Station Type Date Time Source
EGHE TAF UTC NOAA

Error!

Example: see airport list